Time;durP1;ratioP1;P1;durP2;ratioP2;P2;SDS_P1;SDS_P2;PMS_P1;PMS_P2;Temp;Humidity;BMP_temperature;BMP_pressure;BME280_temperature;BME280_humidity;BME280_pressure;Samples;Min_cycle;Max_cycle;Signal;HPM_P1;HPM_P2
2023/12/05 00:00:09;;;;;;;6.28;1.92;;;;;;;13.26;51.55;96191.16;5086885;28;20113;-26
2023/12/05 00:02:35;;;;;;;6.38;1.98;;;;;;;13.32;51.32;96185.16;5094780;28;20437;-26
2023/12/05 00:05:00;;;;;;;5.60;2.05;;;;;;;13.34;51.16;96180.78;5076963;28;20130;-26
2023/12/05 00:07:26;;;;;;;6.10;2.40;;;;;;;13.46;51.33;96184.59;5088292;28;20373;-26
2023/12/05 00:09:51;;;;;;;6.72;2.55;;;;;;;13.41;51.26;96175.03;5078536;28;20020;-26
2023/12/05 00:12:17;;;;;;;6.07;1.85;;;;;;;13.30;51.65;96169.25;5083823;28;20020;-26
2023/12/05 00:14:42;;;;;;;3.92;2.00;;;;;;;13.23;51.61;96172.25;5083461;28;20082;-26
2023/12/05 00:17:08;;;;;;;6.32;2.10;;;;;;;13.30;51.74;96166.53;5084495;28;20020;-26
2023/12/05 00:19:33;;;;;;;4.32;1.83;;;;;;;13.36;51.36;96153.81;5082695;28;20108;-26
2023/12/05 00:21:59;;;;;;;4.65;1.63;;;;;;;13.21;51.88;96153.66;5083898;28;20119;-26
2023/12/05 00:24:24;;;;;;;5.47;1.77;;;;;;;13.22;51.79;96155.16;5083128;28;20013;-26
2023/12/05 00:26:50;;;;;;;4.70;1.63;;;;;;;13.45;51.66;96153.09;5081147;28;20081;-26
2023/12/05 00:29:15;;;;;;;5.60;2.22;;;;;;;13.33;51.97;96152.00;5077935;28;20544;-26
2023/12/05 00:31:42;;;;;;;3.47;1.80;;;;;;;13.06;52.85;96147.22;5090161;28;20013;-26
2023/12/05 00:34:07;;;;;;;4.93;1.90;;;;;;;13.24;52.13;96130.94;5083053;28;20033;-26
2023/12/05 00:36:33;;;;;;;4.47;2.10;;;;;;;13.04;53.01;96124.38;5065308;28;20028;-26
2023/12/05 00:38:58;;;;;;;6.38;1.63;;;;;;;12.80;53.87;96116.72;5080840;28;20024;-26
2023/12/05 00:41:26;;;;;;;3.70;1.70;;;;;;;13.22;53.18;96129.91;5084806;28;20020;-26
2023/12/05 00:43:52;;;;;;;2.92;1.73;;;;;;;13.33;52.70;96132.94;5083068;28;20111;-26
2023/12/05 00:46:18;;;;;;;7.65;1.77;;;;;;;13.47;52.47;96120.72;5075617;28;20095;-26
2023/12/05 00:48:43;;;;;;;6.03;1.85;;;;;;;13.54;52.62;96107.53;5082720;28;20055;-26
2023/12/05 00:51:09;;;;;;;7.60;2.03;;;;;;;13.17;53.71;96100.53;5083129;28;20016;-26
2023/12/05 00:53:34;;;;;;;5.88;1.80;;;;;;;13.02;54.36;96100.31;5083005;28;20118;-26
2023/12/05 00:56:00;;;;;;;5.63;1.90;;;;;;;13.41;53.54;96108.91;5082290;28;20033;-26
2023/12/05 00:58:25;;;;;;;3.75;1.60;;;;;;;13.10;54.05;96106.25;5082399;28;20017;-26
2023/12/05 01:00:51;;;;;;;7.18;1.98;;;;;;;13.46;53.59;96114.50;5082961;28;20392;-26
2023/12/05 01:03:17;;;;;;;7.95;1.63;;;;;;;13.29;53.92;96124.16;5085699;28;20028;-26
2023/12/05 01:05:43;;;;;;;7.00;1.77;;;;;;;12.99;55.05;96116.78;5085831;28;20109;-26
2023/12/05 01:08:08;;;;;;;6.88;1.83;;;;;;;13.38;54.43;96115.25;5089733;28;20103;-26
2023/12/05 01:10:34;;;;;;;4.85;1.85;;;;;;;13.20;54.96;96116.75;5075344;28;20045;-26
2023/12/05 01:13:02;;;;;;;5.43;1.67;;;;;;;13.01;55.27;96115.13;5089979;28;20020;-26
2023/12/05 01:15:27;;;;;;;4.38;1.70;;;;;;;13.28;55.05;96117.19;5082433;28;20042;-26
2023/12/05 01:17:52;;;;;;;3.63;1.60;;;;;;;12.79;56.33;96109.00;5089612;28;20032;-26
2023/12/05 01:20:18;;;;;;;6.65;1.90;;;;;;;13.27;55.05;96102.81;5075472;28;20450;-26
2023/12/05 01:22:43;;;;;;;7.03;1.98;;;;;;;13.40;54.73;96101.94;5082377;28;20560;-26
2023/12/05 01:25:09;;;;;;;5.03;1.65;;;;;;;13.25;55.58;96101.75;5083027;28;20028;-26
2023/12/05 01:27:34;;;;;;;5.88;1.80;;;;;;;13.37;54.72;96100.09;5082179;28;20031;-26
2023/12/05 01:29:59;;;;;;;4.45;1.73;;;;;;;13.08;56.19;96098.53;5082204;28;20462;-26
2023/12/05 01:32:25;;;;;;;4.85;1.52;;;;;;;13.26;56.18;96093.13;5082071;28;20020;-26
2023/12/05 01:34:50;;;;;;;3.78;1.77;;;;;;;13.24;56.27;96095.53;5078843;28;20032;-26
2023/12/05 01:37:16;;;;;;;4.63;1.73;;;;;;;13.29;56.34;96102.38;5085281;28;20520;-26
2023/12/05 01:39:41;;;;;;;2.40;1.40;;;;;;;13.14;56.99;96085.84;5082118;28;20136;-26
2023/12/05 01:42:07;;;;;;;5.28;1.38;;;;;;;13.30;55.82;96088.31;5080083;28;20403;-26
2023/12/05 01:44:32;;;;;;;5.00;1.33;;;;;;;13.17;56.93;96079.50;5076136;28;20366;-26
2023/12/05 01:46:59;;;;;;;4.97;1.48;;;;;;;13.28;56.61;96085.28;5088729;28;20016;-26
2023/12/05 01:49:25;;;;;;;7.28;1.77;;;;;;;13.15;56.56;96081.91;5088786;28;20477;-26
2023/12/05 01:51:52;;;;;;;5.72;2.00;;;;;;;13.22;56.90;96083.63;5076010;28;20104;-26
2023/12/05 01:54:18;;;;;;;5.45;1.55;;;;;;;13.11;57.59;96077.78;5079834;28;20533;-26
2023/12/05 01:56:44;;;;;;;5.35;1.60;;;;;;;13.14;57.62;96077.69;5082044;28;20024;-26
2023/12/05 01:59:10;;;;;;;5.47;1.60;;;;;;;13.10;57.81;96058.00;5080852;28;20024;-26
2023/12/05 02:01:36;;;;;;;5.35;1.60;;;;;;;13.21;57.47;96063.78;5088593;28;20034;-26
2023/12/05 02:04:02;;;;;;;3.72;1.45;;;;;;;13.29;57.35;96053.34;5081487;28;20519;-26
2023/12/05 02:06:28;;;;;;;5.10;1.83;;;;;;;13.20;57.89;96054.09;5081449;28;20044;-26
2023/12/05 02:08:54;;;;;;;3.72;1.40;;;;;;;13.10;57.95;96047.13;5081472;28;20103;-26
2023/12/05 02:11:19;;;;;;;3.22;1.33;;;;;;;13.12;58.18;96043.91;5081383;28;20025;-26
2023/12/05 02:13:47;;;;;;;6.68;1.63;;;;;;;13.23;57.82;96034.13;5081097;28;20028;-26
2023/12/05 02:16:31;;;;;;;7.03;1.75;;;;;;;13.30;57.33;96028.41;5082854;28;20730;-26
2023/12/05 02:19:05;;;;;;;5.50;1.77;;;;;;;13.28;57.81;96033.53;5083841;28;20035;-26
2023/12/05 02:21:35;;;;;;;6.63;1.65;;;;;;;13.21;58.29;96014.78;5081610;28;20017;-26
2023/12/05 02:24:19;;;;;;;3.40;1.58;;;;;;;13.29;58.38;96001.59;5081168;28;20446;-26
2023/12/05 02:27:01;;;;;;;5.25;1.90;;;;;;;13.51;57.48;96004.16;5080875;28;20466;-26
2023/12/05 02:29:26;;;;;;;5.95;1.73;;;;;;;13.38;57.95;95989.94;5083261;28;20036;-26
2023/12/05 02:31:53;;;;;;;4.68;1.63;;;;;;;13.18;58.74;95991.16;5086528;28;20019;-27
2023/12/05 02:34:18;;;;;;;8.25;1.75;;;;;;;13.35;58.74;95991.63;5081326;28;20024;-26
2023/12/05 02:37:11;;;;;;;4.47;1.90;;;;;;;13.35;58.31;95988.16;5087993;28;20033;-26
2023/12/05 02:39:54;;;;;;;4.15;1.73;;;;;;;13.35;58.93;95985.44;5082930;28;20054;-26
2023/12/05 02:42:24;;;;;;;11.55;1.83;;;;;;;12.83;60.44;95984.47;5083628;28;20119;-26
2023/12/05 02:44:53;;;;;;;5.38;2.35;;;;;;;13.29;59.78;95983.31;5081302;28;20020;-26
2023/12/05 02:47:23;;;;;;;7.32;1.80;;;;;;;13.34;59.36;95978.47;5080088;28;20020;-26
2023/12/05 02:49:49;;;;;;;4.72;1.63;;;;;;;13.38;59.40;95973.59;5075672;28;20111;-26
2023/12/05 02:52:15;;;;;;;8.90;1.70;;;;;;;13.19;60.25;95972.88;5085068;28;20444;-27
2023/12/05 02:54:40;;;;;;;5.70;2.03;;;;;;;13.11;60.10;95966.94;5088119;28;20012;-26
2023/12/05 02:57:06;;;;;;;7.28;1.98;;;;;;;13.23;59.85;95973.47;5076880;28;20472;-26
2023/12/05 02:59:31;;;;;;;4.93;1.58;;;;;;;12.80;61.79;95967.06;5077523;28;20080;-26
2023/12/05 03:01:56;;;;;;;6.00;2.22;;;;;;;13.25;60.04;95957.44;5080418;28;20025;-27
2023/12/05 03:04:22;;;;;;;7.32;2.03;;;;;;;13.29;60.54;95961.50;5085278;28;20069;-26
2023/12/05 03:06:47;;;;;;;4.45;1.52;;;;;;;13.47;59.79;95960.75;5075421;28;20077;-26
2023/12/05 03:09:13;;;;;;;6.90;1.42;;;;;;;13.27;60.14;95957.72;5075930;28;20012;-26
2023/12/05 03:11:38;;;;;;;4.20;1.75;;;;;;;13.08;61.22;95950.75;5078075;28;20025;-26
2023/12/05 03:14:04;;;;;;;5.05;1.50;;;;;;;13.26;60.48;95940.63;5080681;28;20027;-26
2023/12/05 03:16:29;;;;;;;6.68;1.67;;;;;;;13.39;60.12;95942.44;5084471;28;20035;-27
2023/12/05 03:18:55;;;;;;;5.95;1.90;;;;;;;13.16;61.27;95936.41;5083544;28;20420;-26
2023/12/05 03:21:21;;;;;;;4.30;1.70;;;;;;;13.35;60.68;95947.31;5083494;28;20026;-26
2023/12/05 03:23:46;;;;;;;7.15;1.42;;;;;;;13.30;61.00;95941.25;5082533;28;20020;-26
2023/12/05 03:26:22;;;;;;;3.28;1.50;;;;;;;13.28;61.36;95929.28;5079011;28;20020;-26
2023/12/05 03:28:49;;;;;;;3.22;2.03;;;;;;;13.26;61.35;95931.72;5087905;28;20024;-26
2023/12/05 03:31:15;;;;;;;8.57;2.03;;;;;;;13.30;61.70;95946.69;5079394;28;20027;-26
2023/12/05 03:33:41;;;;;;;3.88;1.50;;;;;;;13.45;60.91;95938.66;5087641;28;20169;-26
2023/12/05 03:36:07;;;;;;;5.63;1.48;;;;;;;13.33;61.67;95927.94;5080952;28;20474;-26
2023/12/05 03:38:32;;;;;;;5.32;1.80;;;;;;;13.37;61.77;95939.41;5085901;28;20432;-26
2023/12/05 03:40:59;;;;;;;7.90;2.30;;;;;;;13.18;62.59;95936.72;5064804;28;20024;-26
2023/12/05 03:43:24;;;;;;;5.57;1.67;;;;;;;13.38;62.14;95935.47;5084177;28;20017;-26
2023/12/05 03:45:50;;;;;;;5.82;1.73;;;;;;;13.31;62.72;95936.56;5084372;28;20525;-27
2023/12/05 03:48:16;;;;;;;4.13;1.50;;;;;;;13.27;62.62;95920.38;5082827;28;20047;-26
2023/12/05 03:50:41;;;;;;;4.35;2.00;;;;;;;13.37;61.64;95929.28;5084750;28;20013;-26
2023/12/05 03:53:07;;;;;;;4.82;1.70;;;;;;;13.39;62.33;95929.56;5083941;28;20020;-27
2023/12/05 03:55:36;;;;;;;3.38;1.67;;;;;;;13.38;62.29;95933.50;5083286;28;20023;-26
2023/12/05 03:58:02;;;;;;;7.65;1.85;;;;;;;13.56;61.91;95930.00;5086413;28;20043;-26
2023/12/05 04:00:28;;;;;;;5.97;1.77;;;;;;;13.21;62.82;95924.94;5088420;28;20025;-26
2023/12/05 04:02:54;;;;;;;3.55;2.08;;;;;;;13.27;63.08;95936.69;5084190;28;20082;-26
2023/12/05 04:05:20;;;;;;;3.45;1.50;;;;;;;13.25;63.01;95925.50;5080691;28;20445;-26
2023/12/05 04:07:46;;;;;;;5.68;1.83;;;;;;;13.34;62.81;95918.56;5078842;28;20025;-26
2023/12/05 04:10:12;;;;;;;3.33;1.60;;;;;;;13.58;62.20;95922.13;5083874;28;20020;-27
2023/12/05 04:12:41;;;;;;;5.40;1.60;;;;;;;13.20;63.11;95920.69;5089294;28;20516;-26
2023/12/05 04:15:08;;;;;;;3.88;2.05;;;;;;;13.16;63.09;95911.16;5078014;28;20028;-27
2023/12/05 04:17:34;;;;;;;3.83;1.40;;;;;;;13.29;62.93;95906.28;5082715;28;20052;-26
2023/12/05 04:20:00;;;;;;;2.17;1.20;;;;;;;13.24;62.84;95915.06;5083707;28;20453;-26
2023/12/05 04:22:26;;;;;;;7.18;2.30;;;;;;;13.49;62.32;95933.03;5093500;28;20026;-26
2023/12/05 04:24:52;;;;;;;3.70;1.75;;;;;;;13.45;62.83;95918.84;5086602;28;20056;-26
2023/12/05 04:27:18;;;;;;;4.70;1.75;;;;;;;13.55;62.48;95917.59;5084109;28;20055;-26
2023/12/05 04:29:44;;;;;;;4.40;1.60;;;;;;;13.73;61.70;95909.34;5083269;28;20025;-26
2023/12/05 04:32:09;;;;;;;4.85;1.80;;;;;;;13.66;61.95;95904.25;5082420;28;20066;-26
2023/12/05 04:34:35;;;;;;;2.95;1.40;;;;;;;13.59;62.53;95894.44;5083774;28;20025;-26
2023/12/05 04:37:00;;;;;;;3.40;1.73;;;;;;;13.56;62.47;95902.75;5081507;28;20016;-27
2023/12/05 04:39:26;;;;;;;6.60;1.83;;;;;;;13.40;62.75;95890.22;5084452;28;20035;-26
2023/12/05 04:41:51;;;;;;;4.40;1.75;;;;;;;13.48;62.61;95890.66;5079078;28;20055;-26
2023/12/05 04:44:17;;;;;;;3.25;1.55;;;;;;;13.38;63.19;95879.03;5079222;28;20027;-26
2023/12/05 04:46:42;;;;;;;3.40;1.40;;;;;;;13.52;62.61;95872.19;5090344;28;23040;-26
2023/12/05 04:49:08;;;;;;;4.22;2.15;;;;;;;13.48;62.68;95858.72;5087599;28;20036;-26
2023/12/05 04:51:34;;;;;;;2.65;1.42;;;;;;;13.50;62.86;95861.00;5085100;28;20020;-26
2023/12/05 04:53:59;;;;;;;3.55;1.75;;;;;;;13.33;63.05;95849.72;5085674;28;20373;-26
2023/12/05 04:56:25;;;;;;;3.33;1.30;;;;;;;13.38;63.25;95849.06;5085935;28;20016;-26
2023/12/05 04:58:51;;;;;;;3.33;1.27;;;;;;;13.64;62.22;95839.31;5084357;28;20025;-26
2023/12/05 05:01:16;;;;;;;3.38;1.20;;;;;;;13.61;62.38;95828.56;5081299;28;20021;-26
2023/12/05 05:03:42;;;;;;;2.63;1.42;;;;;;;13.58;62.90;95826.78;5082245;28;20118;-27
2023/12/05 05:06:07;;;;;;;5.25;1.50;;;;;;;13.58;62.37;95816.63;5085309;28;20070;-26
2023/12/05 05:08:33;;;;;;;2.15;1.15;;;;;;;13.73;62.22;95813.22;5080633;28;20462;-26
2023/12/05 05:10:58;;;;;;;3.30;1.50;;;;;;;13.86;61.39;95811.03;5082538;28;20457;-26
2023/12/05 05:13:24;;;;;;;2.75;1.40;;;;;;;13.66;62.57;95797.97;5078613;28;20528;-26
2023/12/05 05:15:49;;;;;;;4.90;1.45;;;;;;;13.68;62.68;95803.72;5085406;28;20111;-26
2023/12/05 05:18:15;;;;;;;3.53;1.42;;;;;;;13.74;61.77;95804.59;5075180;28;20381;-26
2023/12/05 05:20:40;;;;;;;3.17;1.55;;;;;;;13.54;62.62;95796.22;5079639;28;20420;-26
2023/12/05 05:23:06;;;;;;;4.30;1.70;;;;;;;13.57;62.41;95785.16;5077223;28;20024;-26
2023/12/05 05:25:31;;;;;;;2.63;1.50;;;;;;;13.46;63.12;95784.16;5082298;28;20040;-26
2023/12/05 05:27:57;;;;;;;3.28;1.80;;;;;;;13.73;61.97;95781.28;5082307;28;20021;-26
2023/12/05 05:30:22;;;;;;;3.50;1.63;;;;;;;13.58;62.45;95788.63;5081724;28;20050;-26
2023/12/05 05:32:48;;;;;;;2.67;1.30;;;;;;;13.77;62.12;95792.78;5082208;28;20032;-26
2023/12/05 05:35:13;;;;;;;1.90;1.10;;;;;;;13.67;62.40;95791.31;5081688;28;20020;-26
2023/12/05 05:37:39;;;;;;;2.83;1.27;;;;;;;13.72;62.33;95795.38;5082472;28;20020;-27
2023/12/05 05:40:06;;;;;;;2.83;1.30;;;;;;;13.60;62.75;95792.38;5081803;28;20040;-27
2023/12/05 05:42:32;;;;;;;3.42;1.65;;;;;;;13.51;62.89;95780.78;5082029;28;20484;-26
2023/12/05 05:44:58;;;;;;;3.15;1.38;;;;;;;13.68;62.26;95776.47;5056511;28;20024;-26
2023/12/05 05:47:24;;;;;;;2.63;1.42;;;;;;;13.61;62.61;95766.66;5081668;28;20434;-26
2023/12/05 05:49:49;;;;;;;3.85;1.50;;;;;;;13.57;62.76;95762.59;5083880;28;20035;-26
2023/12/05 05:52:15;;;;;;;3.13;1.63;;;;;;;13.81;61.83;95760.66;5084661;28;20020;-26
2023/12/05 05:54:40;;;;;;;3.85;1.55;;;;;;;13.62;63.02;95761.97;5076531;28;20021;-26
2023/12/05 05:57:06;;;;;;;3.63;1.55;;;;;;;13.56;63.12;95761.09;5081289;28;20020;-26
2023/12/05 05:59:31;;;;;;;4.45;1.40;;;;;;;13.81;62.05;95749.75;5088457;28;20028;-27
2023/12/05 06:01:57;;;;;;;4.63;1.40;;;;;;;13.33;64.14;95748.19;5075823;28;20021;-26
2023/12/05 06:04:22;;;;;;;3.03;1.60;;;;;;;13.54;63.30;95742.50;5079816;28;20028;-26
2023/12/05 06:06:48;;;;;;;3.35;1.10;;;;;;;13.46;63.37;95740.56;5081340;28;20054;-26
2023/12/05 06:09:14;;;;;;;1.92;1.10;;;;;;;13.58;63.10;95742.31;5084301;28;20012;-26
2023/12/05 06:11:40;;;;;;;2.15;1.23;;;;;;;13.52;63.55;95746.88;5078332;28;20023;-26
2023/12/05 06:14:05;;;;;;;3.38;1.40;;;;;;;13.72;63.37;95735.44;5075377;28;20111;-27
2023/12/05 06:16:31;;;;;;;1.92;1.10;;;;;;;13.66;63.15;95735.31;5084452;28;20016;-26
2023/12/05 06:18:56;;;;;;;1.83;1.33;;;;;;;13.27;65.31;95735.19;5083607;28;20028;-26
2023/12/05 06:21:22;;;;;;;1.70;1.20;;;;;;;13.60;63.63;95750.78;5083329;28;20021;-26
2023/12/05 06:23:47;;;;;;;1.70;1.25;;;;;;;13.63;63.60;95749.84;5078585;28;20016;-26
2023/12/05 06:26:13;;;;;;;2.97;1.42;;;;;;;13.72;63.36;95752.53;5081574;28;20020;-26
2023/12/05 06:28:38;;;;;;;3.90;1.50;;;;;;;13.74;63.39;95782.03;5080977;28;20439;-26
2023/12/05 06:31:04;;;;;;;3.30;1.58;;;;;;;13.63;64.09;95763.47;5073802;28;20069;-26
2023/12/05 06:33:30;;;;;;;4.25;1.33;;;;;;;13.69;64.14;95758.91;5082704;28;21149;-27
2023/12/05 06:35:55;;;;;;;2.88;1.25;;;;;;;13.65;64.71;95753.63;5078975;28;20028;-27
2023/12/05 06:38:21;;;;;;;4.35;1.42;;;;;;;13.57;64.73;95735.38;5080908;28;20024;-26
2023/12/05 06:40:46;;;;;;;2.08;1.05;;;;;;;13.57;64.77;95735.38;5055300;28;20560;-26
2023/12/05 06:43:12;;;;;;;2.00;0.98;;;;;;;13.36;65.50;95736.34;5080865;28;20023;-26
2023/12/05 06:45:37;;;;;;;2.15;0.95;;;;;;;13.62;65.19;95737.44;5080590;28;20387;-26
2023/12/05 06:48:03;;;;;;;3.38;1.30;;;;;;;13.64;65.40;95735.75;5080188;28;20440;-26
2023/12/05 06:50:28;;;;;;;2.20;1.00;;;;;;;13.46;65.52;95735.13;5080426;28;20014;-26
2023/12/05 06:52:57;;;;;;;5.15;1.42;;;;;;;13.59;65.12;95717.34;5081094;28;20466;-26
2023/12/05 06:55:26;;;;;;;1.80;0.95;;;;;;;13.54;65.47;95720.69;5078547;28;20098;-26
2023/12/05 06:57:51;;;;;;;2.17;1.20;;;;;;;13.39;66.46;95713.66;5081050;28;20046;-26
2023/12/05 07:00:18;;;;;;;2.00;1.42;;;;;;;13.52;65.58;95703.28;5078042;28;20055;-26
2023/12/05 07:02:44;;;;;;;2.88;1.75;;;;;;;13.25;66.61;95706.91;5083192;28;20145;-26
2023/12/05 07:05:09;;;;;;;2.03;1.20;;;;;;;13.37;67.27;95710.63;5083307;28;20095;-26
2023/12/05 07:07:35;;;;;;;2.50;1.13;;;;;;;13.34;67.25;95706.88;5077816;28;20111;-26
2023/12/05 07:10:01;;;;;;;2.75;1.20;;;;;;;13.40;67.72;95709.72;5087640;28;20359;-26
2023/12/05 07:12:27;;;;;;;2.30;1.17;;;;;;;13.62;66.73;95721.09;5084484;28;20106;-26
2023/12/05 07:14:52;;;;;;;4.22;1.63;;;;;;;13.54;67.40;95733.56;5075837;28;20024;-26
2023/12/05 07:17:18;;;;;;;2.75;1.15;;;;;;;13.62;67.46;95765.44;5073563;28;20037;-27
2023/12/05 07:19:44;;;;;;;2.00;1.23;;;;;;;13.72;66.34;95760.72;5079093;28;20471;-26
2023/12/05 07:22:10;;;;;;;2.58;1.48;;;;;;;13.72;66.19;95744.38;5082064;28;20024;-26
2023/12/05 07:24:35;;;;;;;2.40;1.02;;;;;;;13.78;65.97;95749.94;5083442;28;20477;-26
2023/12/05 07:27:01;;;;;;;2.63;0.98;;;;;;;13.84;65.20;95756.25;5065402;28;20028;-27
2023/12/05 07:29:26;;;;;;;1.67;0.95;;;;;;;13.94;64.33;95763.16;5082729;28;20039;-26
2023/12/05 07:31:52;;;;;;;2.70;0.80;;;;;;;13.87;64.44;95766.97;5085963;28;20025;-26
2023/12/05 07:34:17;;;;;;;2.55;0.70;;;;;;;13.64;65.30;95768.47;5080811;28;20024;-26
2023/12/05 07:36:43;;;;;;;2.33;0.68;;;;;;;13.59;65.07;95779.25;5076064;28;20097;-26
2023/12/05 07:39:15;;;;;;;2.53;0.80;;;;;;;13.82;64.39;95778.53;5082960;28;20097;-27
2023/12/05 07:41:40;;;;;;;1.58;0.50;;;;;;;13.68;64.38;95781.94;5072974;28;20028;-26
2023/12/05 07:44:06;;;;;;;0.90;0.60;;;;;;;13.86;63.99;95781.81;5079524;28;20025;-26
2023/12/05 07:46:33;;;;;;;0.60;0.32;;;;;;;13.70;64.15;95770.56;5079946;28;20070;-26
2023/12/05 07:48:58;;;;;;;0.73;0.40;;;;;;;13.76;63.64;95774.16;5072682;28;20123;-26
2023/12/05 07:51:24;;;;;;;2.22;0.43;;;;;;;13.81;63.00;95782.47;5080139;28;20099;-26
2023/12/05 07:53:50;;;;;;;0.85;0.40;;;;;;;13.84;62.97;95769.88;5079772;28;20043;-26
2023/12/05 07:56:16;;;;;;;0.30;0.30;;;;;;;13.68;63.24;95762.84;5085088;28;20040;-26
2023/12/05 07:58:42;;;;;;;0.98;0.40;;;;;;;13.84;62.97;95764.44;5074605;28;20071;-26
2023/12/05 08:01:07;;;;;;;1.60;0.80;;;;;;;13.83;62.54;95771.09;5079456;28;20036;-26
2023/12/05 08:03:34;;;;;;;1.10;0.70;;;;;;;13.77;62.81;95775.66;5061923;28;20454;-26
2023/12/05 08:06:01;;;;;;;0.93;0.50;;;;;;;13.65;63.47;95769.97;5082925;28;20469;-26
2023/12/05 08:08:29;;;;;;;0.63;0.43;;;;;;;13.66;63.47;95765.28;5089581;28;20033;-26
2023/12/05 08:10:55;;;;;;;0.98;0.50;;;;;;;13.71;63.48;95755.72;5083822;28;20027;-27
2023/12/05 08:13:20;;;;;;;0.70;0.50;;;;;;;13.83;62.69;95768.38;5091113;28;20017;-27
2023/12/05 08:15:46;;;;;;;0.65;0.45;;;;;;;13.81;62.60;95771.56;5082981;28;20540;-26
2023/12/05 08:18:11;;;;;;;0.85;0.60;;;;;;;13.86;63.06;95770.16;5078614;28;20077;-26
2023/12/05 08:20:37;;;;;;;1.88;0.80;;;;;;;13.77;63.51;95770.97;5082157;28;20382;-27
2023/12/05 08:23:02;;;;;;;1.73;0.90;;;;;;;13.75;63.21;95767.94;5090546;28;20072;-26
2023/12/05 08:25:28;;;;;;;1.98;0.70;;;;;;;13.77;62.94;95764.75;5076070;28;20107;-26
2023/12/05 08:27:53;;;;;;;0.80;0.50;;;;;;;13.66;63.32;95763.31;5083270;28;20091;-26
2023/12/05 08:30:18;;;;;;;3.25;1.63;;;;;;;13.80;63.11;95761.13;5083030;28;20137;-27
2023/12/05 08:32:44;;;;;;;2.35;1.00;;;;;;;13.72;63.29;95766.16;5083202;28;20032;-26
2023/12/05 08:35:09;;;;;;;1.48;1.02;;;;;;;13.76;62.97;95758.56;5083289;28;20020;-26
2023/12/05 08:37:35;;;;;;;2.22;1.20;;;;;;;13.61;63.55;95763.94;5085321;28;20078;-26
2023/12/05 08:40:00;;;;;;;3.60;0.80;;;;;;;13.83;62.72;95774.59;5081490;28;20021;-26
2023/12/05 08:42:28;;;;;;;1.88;0.80;;;;;;;13.84;62.28;95759.75;5082375;28;20479;-26
2023/12/05 08:44:54;;;;;;;1.38;0.90;;;;;;;13.88;62.59;95771.22;5078919;28;20048;-26
2023/12/05 08:47:19;;;;;;;2.47;0.60;;;;;;;13.92;62.56;95777.25;5086657;28;20047;-26
2023/12/05 08:49:45;;;;;;;2.42;0.73;;;;;;;13.96;62.40;95780.56;5083836;28;20481;-26
2023/12/05 08:52:10;;;;;;;1.60;0.80;;;;;;;13.98;61.87;95783.56;5082676;28;20070;-26
2023/12/05 08:54:36;;;;;;;1.20;0.90;;;;;;;13.80;62.88;95793.81;5075761;28;20036;-26
2023/12/05 08:57:02;;;;;;;1.48;0.90;;;;;;;13.80;62.77;95794.59;5090052;28;20054;-26
2023/12/05 08:59:27;;;;;;;1.52;0.90;;;;;;;13.75;63.25;95797.94;5088905;28;20063;-26
2023/12/05 09:01:53;;;;;;;1.50;1.00;;;;;;;13.59;63.94;95795.59;5083203;28;20031;-26
2023/12/05 09:04:19;;;;;;;1.60;0.80;;;;;;;13.64;63.31;95803.13;5075336;28;20029;-26
2023/12/05 09:06:45;;;;;;;2.45;1.23;;;;;;;13.79;62.91;95806.69;5083041;28;20032;-26
2023/12/05 09:09:10;;;;;;;1.83;1.15;;;;;;;13.79;62.83;95795.78;5082452;28;20027;-26
2023/12/05 09:11:38;;;;;;;2.47;1.40;;;;;;;13.71;63.27;95799.31;5082602;28;20038;-26
2023/12/05 09:14:05;;;;;;;2.10;1.50;;;;;;;13.81;62.98;95803.50;5082827;28;20028;-26
2023/12/05 09:16:31;;;;;;;2.78;1.65;;;;;;;14.05;62.22;95787.16;5085825;28;20149;-26
2023/12/05 09:18:56;;;;;;;2.60;1.85;;;;;;;13.93;62.18;95797.84;5084230;28;20119;-27
2023/12/05 09:21:22;;;;;;;7.50;3.55;;;;;;;13.78;62.92;95798.97;5066671;28;20017;-26
2023/12/05 09:23:48;;;;;;;4.45;3.30;;;;;;;13.85;62.85;95796.66;5085546;28;20068;-26
2023/12/05 09:26:14;;;;;;;3.97;2.33;;;;;;;13.88;63.25;95793.00;5083915;28;20111;-26
2023/12/05 09:28:40;;;;;;;3.13;2.30;;;;;;;13.93;62.98;95786.94;5078704;28;20496;-26
2023/12/05 09:31:06;;;;;;;4.80;2.20;;;;;;;14.01;63.09;95779.16;5092753;28;20036;-26
2023/12/05 09:33:32;;;;;;;2.72;1.80;;;;;;;13.89;63.32;95778.16;5081954;28;20113;-26
2023/12/05 09:35:58;;;;;;;2.08;1.27;;;;;;;13.81;63.65;95784.44;5082265;28;20020;-26
2023/12/05 09:38:24;;;;;;;2.55;1.40;;;;;;;13.91;63.38;95780.44;5082574;28;20074;-27
2023/12/05 09:40:51;;;;;;;4.32;2.65;;;;;;;14.10;62.79;95773.63;5081960;28;20017;-26
2023/12/05 09:43:21;;;;;;;5.78;4.07;;;;;;;13.92;63.49;95774.53;5082133;28;20052;-26
2023/12/05 09:45:53;;;;;;;6.47;3.63;;;;;;;13.99;63.39;95765.22;5084616;28;20042;-26
2023/12/05 09:48:22;;;;;;;5.57;2.60;;;;;;;13.81;64.15;95770.81;5084696;28;20427;-26
2023/12/05 09:50:48;;;;;;;4.25;2.13;;;;;;;13.96;63.69;95766.19;5082329;28;20533;-26
2023/12/05 09:53:14;;;;;;;3.50;1.80;;;;;;;13.82;64.54;95775.03;5079174;28;20028;-26
2023/12/05 09:55:40;;;;;;;2.70;1.85;;;;;;;13.94;64.13;95774.81;5083909;28;20024;-26
2023/12/05 09:58:06;;;;;;;2.72;1.63;;;;;;;13.84;64.50;95770.66;5081680;28;20501;-26
2023/12/05 10:00:32;;;;;;;3.25;2.47;;;;;;;13.88;64.49;95771.22;5080483;28;20473;-26
2023/12/05 10:03:01;;;;;;;5.30;3.13;;;;;;;13.88;64.50;95760.31;5063593;28;20029;-26
2023/12/05 10:05:31;;;;;;;4.45;2.83;;;;;;;13.69;65.41;95764.38;5078891;28;20557;-27
2023/12/05 10:07:57;;;;;;;2.90;2.17;;;;;;;13.92;64.49;95758.16;5075262;28;20094;-26
2023/12/05 10:10:24;;;;;;;3.00;2.20;;;;;;;14.03;64.07;95741.28;5077731;28;20016;-27
2023/12/05 10:12:49;;;;;;;2.45;1.90;;;;;;;14.05;64.04;95738.84;5077181;28;20025;-26
2023/12/05 10:15:18;;;;;;;2.05;1.50;;;;;;;14.11;63.70;95741.66;5083772;28;20028;-26
2023/12/05 10:17:46;;;;;;;2.53;2.25;;;;;;;14.01;64.24;95746.44;5078345;28;20031;-26
2023/12/05 10:20:11;;;;;;;7.38;4.65;;;;;;;14.06;63.92;95753.22;5088095;28;20028;-26
2023/12/05 10:22:37;;;;;;;6.38;3.80;;;;;;;14.13;63.82;95753.63;5085538;28;20043;-26
2023/12/05 10:25:06;;;;;;;6.50;3.40;;;;;;;14.07;64.09;95749.28;5076695;28;20165;-27
2023/12/05 10:27:32;;;;;;;4.35;2.75;;;;;;;13.99;64.64;95752.34;5081429;28;20025;-26
2023/12/05 10:29:57;;;;;;;4.40;2.13;;;;;;;14.00;64.66;95753.88;5080920;28;20028;-26
2023/12/05 10:32:27;;;;;;;5.93;2.85;;;;;;;13.95;64.78;95749.06;5081478;28;20032;-26
2023/12/05 10:34:56;;;;;;;3.85;2.15;;;;;;;13.91;65.30;95743.03;5084105;28;20016;-27
2023/12/05 10:37:26;;;;;;;3.63;1.70;;;;;;;14.00;65.05;95739.47;5082403;28;20020;-27
2023/12/05 10:39:53;;;;;;;3.20;1.50;;;;;;;14.04;64.84;95734.63;5081081;28;20458;-27
2023/12/05 10:42:20;;;;;;;1.35;1.20;;;;;;;14.09;65.03;95722.31;5080304;28;20031;-26
2023/12/05 10:44:46;;;;;;;2.63;1.40;;;;;;;14.12;64.62;95729.53;5076710;28;20125;-27
2023/12/05 10:47:13;;;;;;;2.65;1.65;;;;;;;13.99;65.46;95727.06;5078237;28;20070;-27
2023/12/05 10:49:42;;;;;;;3.03;1.80;;;;;;;14.06;65.36;95723.25;5081961;28;20016;-26
2023/12/05 10:52:11;;;;;;;2.70;1.40;;;;;;;14.08;65.02;95721.56;5083530;28;20095;-26
2023/12/05 10:54:36;;;;;;;2.42;1.48;;;;;;;13.94;65.92;95716.81;5075276;28;20063;-27
2023/12/05 10:57:08;;;;;;;2.72;1.83;;;;;;;14.06;66.23;95725.97;5080489;28;20048;-28
2023/12/05 10:59:34;;;;;;;3.63;1.85;;;;;;;14.04;65.77;95718.25;5087722;28;20016;-26
2023/12/05 11:02:00;;;;;;;3.22;2.15;;;;;;;14.12;65.43;95713.94;5080574;28;20024;-26
2023/12/05 11:04:25;;;;;;;3.50;2.38;;;;;;;14.12;65.15;95713.19;5073647;28;20040;-26
2023/12/05 11:06:55;;;;;;;3.78;2.00;;;;;;;14.16;65.14;95719.97;5062358;28;20035;-26
2023/12/05 11:09:23;;;;;;;2.15;1.40;;;;;;;14.16;64.60;95711.03;5084264;28;20465;-26
2023/12/05 11:11:52;;;;;;;3.25;1.70;;;;;;;14.22;64.76;95712.66;5082897;28;20063;-27
2023/12/05 11:14:21;;;;;;;5.32;2.95;;;;;;;14.23;64.87;95714.16;5083161;28;20465;-26
2023/12/05 11:16:49;;;;;;;3.78;2.60;;;;;;;14.04;65.44;95712.81;5077343;28;20390;-27
2023/12/05 11:19:15;;;;;;;3.20;2.10;;;;;;;14.05;64.99;95716.28;5080495;28;20024;-27
2023/12/05 11:22:06;;;;;;;3.15;2.03;;;;;;;14.27;63.81;95701.09;5080469;28;20398;-27
2023/12/05 11:25:01;;;;;;;4.85;2.42;;;;;;;14.20;63.99;95706.16;5032190;28;20032;-26
2023/12/05 11:27:51;;;;;;;2.60;1.98;;;;;;;14.12;64.25;95708.50;5069983;28;20024;-26
2023/12/05 11:30:28;;;;;;;4.38;2.50;;;;;;;14.15;64.60;95712.25;5080162;28;20434;-26